createdAt,value
2023-06-13T00:02:01.077Z,3.60
2023-06-13T00:04:31.696Z,3.37
2023-06-13T00:07:01.748Z,3.53
2023-06-13T00:09:30.078Z,3.17
2023-06-13T00:11:57.407Z,3.17
2023-06-13T00:14:28.804Z,3.00
2023-06-13T00:16:56.219Z,3.30
2023-06-13T00:19:25.256Z,3.10
2023-06-13T00:21:52.905Z,3.23
2023-06-13T00:24:19.984Z,3.50
2023-06-13T00:26:46.976Z,3.10
2023-06-13T00:29:14.157Z,3.60
2023-06-13T00:31:41.809Z,3.30
2023-06-13T00:34:08.885Z,3.57
2023-06-13T00:36:38.622Z,3.47
2023-06-13T00:39:07.433Z,3.50
2023-06-13T00:41:34.581Z,3.77
2023-06-13T00:44:01.940Z,3.33
2023-06-13T00:46:35.673Z,3.57
2023-06-13T00:49:05.442Z,3.20
2023-06-13T00:51:36.918Z,3.53
2023-06-13T00:54:08.037Z,3.10
2023-06-13T00:56:38.055Z,3.37
2023-06-13T00:59:06.100Z,3.20
2023-06-13T01:01:33.156Z,3.53
2023-06-13T01:04:01.161Z,2.87
2023-06-13T01:06:32.057Z,3.30
2023-06-13T01:09:04.026Z,3.00
2023-06-13T01:11:55.136Z,3.40
2023-06-13T01:14:43.141Z,3.60
2023-06-13T01:17:25.472Z,3.17
2023-06-13T01:19:55.558Z,3.47
2023-06-13T01:22:33.171Z,3.30
2023-06-13T01:25:17.277Z,3.23
2023-06-13T01:27:50.532Z,3.20
2023-06-13T01:30:19.879Z,3.50
2023-06-13T01:32:49.239Z,3.23
2023-06-13T01:35:16.862Z,3.30
2023-06-13T01:37:44.115Z,3.67
2023-06-13T01:40:11.806Z,3.27
2023-06-13T01:42:39.050Z,3.23
2023-06-13T01:45:06.727Z,3.67
2023-06-13T01:47:47.828Z,3.40
2023-06-13T01:50:27.475Z,3.20
2023-06-13T01:53:05.928Z,3.43
2023-06-13T01:55:46.002Z,3.60
2023-06-13T01:58:33.859Z,3.50
2023-06-13T02:01:05.414Z,3.10
2023-06-13T02:03:34.345Z,3.30
2023-06-13T02:06:04.212Z,3.40
2023-06-13T02:08:32.837Z,3.17
2023-06-13T02:10:59.827Z,3.13
2023-06-13T02:13:26.770Z,3.20
2023-06-13T02:15:53.847Z,3.20
2023-06-13T02:18:21.567Z,3.23
2023-06-13T02:20:48.472Z,3.10
2023-06-13T02:23:16.967Z,3.20
2023-06-13T02:25:45.771Z,3.30
2023-06-13T02:28:12.846Z,3.17
2023-06-13T02:30:40.048Z,3.67
2023-06-13T02:33:09.563Z,3.17
2023-06-13T02:35:37.866Z,3.40
2023-06-13T02:38:07.734Z,3.47
2023-06-13T02:40:37.202Z,3.07
2023-06-13T02:43:04.189Z,3.37
2023-06-13T02:45:31.268Z,3.40
2023-06-13T02:47:58.456Z,3.17
2023-06-13T02:50:25.576Z,3.20
2023-06-13T02:52:53.132Z,3.60
2023-06-13T02:55:21.725Z,3.10
2023-06-13T02:57:48.868Z,3.70
2023-06-13T03:00:17.904Z,3.07
2023-06-13T03:02:45.213Z,3.30
2023-06-13T03:05:18.000Z,3.20
2023-06-13T03:07:47.811Z,3.30
2023-06-13T03:10:17.506Z,3.17
2023-06-13T03:12:45.046Z,3.23
2023-06-13T03:15:13.106Z,3.00
2023-06-13T03:17:40.710Z,3.03
2023-06-13T03:20:09.293Z,3.40
2023-06-13T03:22:36.396Z,2.93
2023-06-13T03:25:04.128Z,3.13
2023-06-13T03:27:33.249Z,3.20
2023-06-13T03:30:00.978Z,3.13
2023-06-13T03:32:28.070Z,2.80
2023-06-13T03:34:55.501Z,2.73
2023-06-13T03:37:22.954Z,2.93
2023-06-13T03:39:50.328Z,2.80
2023-06-13T03:42:17.743Z,3.00
2023-06-13T03:44:48.271Z,3.23
2023-06-13T03:47:18.521Z,2.80
2023-06-13T03:49:45.562Z,2.63
2023-06-13T03:52:12.929Z,2.80
2023-06-13T03:54:40.931Z,2.70
2023-06-13T03:57:08.459Z,2.20
2023-06-13T03:59:36.734Z,2.70
2023-06-13T04:02:04.956Z,2.90
2023-06-13T04:04:33.685Z,3.03
2023-06-13T04:07:05.973Z,2.83
2023-06-13T04:09:36.392Z,2.73
2023-06-13T04:12:04.152Z,2.70
2023-06-13T04:14:31.208Z,2.90
2023-06-13T04:17:00.813Z,2.90
2023-06-13T04:19:27.896Z,2.60
2023-06-13T04:21:54.902Z,3.20
2023-06-13T04:24:23.023Z,3.00
2023-06-13T04:26:51.568Z,2.80
2023-06-13T04:29:20.168Z,2.70
2023-06-13T04:31:47.706Z,2.70
2023-06-13T04:34:15.609Z,7.87
2023-06-13T04:36:45.362Z,4.73
2023-06-13T04:39:13.419Z,5.60
2023-06-13T04:41:44.727Z,4.50
2023-06-13T04:44:14.473Z,3.90
2023-06-13T04:46:45.097Z,3.43
2023-06-13T04:49:13.181Z,3.50
2023-06-13T04:51:42.022Z,4.00
2023-06-13T04:54:11.394Z,3.00
2023-06-13T04:56:41.503Z,2.93
2023-06-13T04:59:09.762Z,2.70
2023-06-13T05:01:39.040Z,2.93
2023-06-13T05:04:07.012Z,3.13
2023-06-13T05:06:38.535Z,2.73
2023-06-13T05:09:07.448Z,3.00
2023-06-13T05:11:34.548Z,2.90
2023-06-13T05:14:01.731Z,2.60
2023-06-13T05:16:31.334Z,2.57
2023-06-13T05:19:01.471Z,2.80
2023-06-13T05:21:32.517Z,2.93
2023-06-13T05:24:00.142Z,2.93
2023-06-13T05:26:29.199Z,2.33
2023-06-13T05:28:58.195Z,4.73
2023-06-13T05:31:25.385Z,2.70
2023-06-13T05:33:52.420Z,2.90
2023-06-13T05:36:19.674Z,3.07
2023-06-13T05:38:47.654Z,3.10
2023-06-13T05:41:15.202Z,2.30
2023-06-13T05:43:42.430Z,3.00
2023-06-13T05:46:09.653Z,3.03
2023-06-13T05:48:36.878Z,2.40
2023-06-13T05:51:06.242Z,2.97
2023-06-13T05:53:33.507Z,2.50
2023-06-13T05:56:00.506Z,2.40
2023-06-13T05:58:27.724Z,2.87
2023-06-13T06:00:54.958Z,2.63
2023-06-13T06:03:22.491Z,2.47
2023-06-13T06:05:49.626Z,2.70
2023-06-13T06:08:16.798Z,2.77
2023-06-13T06:10:43.914Z,2.70
2023-06-13T06:13:11.100Z,2.43
2023-06-13T06:15:38.348Z,2.90
2023-06-13T06:18:05.507Z,2.65
2023-06-13T06:20:32.957Z,2.40
2023-06-13T06:23:00.479Z,2.30
2023-06-13T06:25:27.788Z,2.40
2023-06-13T06:27:56.301Z,2.38
2023-06-13T06:30:23.957Z,2.60
2023-06-13T06:32:51.480Z,2.13
2023-06-13T06:35:18.771Z,2.35
2023-06-13T06:37:45.786Z,2.53
2023-06-13T06:40:13.198Z,2.60
2023-06-13T06:42:40.666Z,2.33
2023-06-13T06:45:11.088Z,2.50
2023-06-13T06:47:38.752Z,2.87
2023-06-13T06:50:06.201Z,2.50
2023-06-13T06:52:33.248Z,2.22
2023-06-13T06:55:00.365Z,2.60
2023-06-13T06:57:29.637Z,2.60
2023-06-13T06:59:56.615Z,2.20
2023-06-13T07:02:23.863Z,2.17
2023-06-13T07:04:50.986Z,2.20
2023-06-13T07:07:18.104Z,2.58
2023-06-13T07:09:45.107Z,2.30
2023-06-13T07:12:12.516Z,2.42
2023-06-13T07:14:39.575Z,2.40
2023-06-13T07:17:06.986Z,2.58
2023-06-13T07:19:34.125Z,2.50
2023-06-13T07:22:05.795Z,2.40
2023-06-13T07:24:33.502Z,2.40
2023-06-13T07:27:00.675Z,2.10
2023-06-13T07:29:27.654Z,2.22
2023-06-13T07:31:54.938Z,2.38
2023-06-13T07:34:49.784Z,2.58
2023-06-13T07:37:09.225Z,2.35
2023-06-13T07:39:36.289Z,2.28
2023-06-13T07:42:03.659Z,2.47
2023-06-13T07:44:30.784Z,2.00
2023-06-13T07:46:57.839Z,1.80
2023-06-13T07:49:24.874Z,2.30
2023-06-13T07:51:51.827Z,2.55
2023-06-13T07:54:18.748Z,2.15
2023-06-13T07:56:45.967Z,2.20
2023-06-13T07:59:13.052Z,2.20
2023-06-13T08:01:40.019Z,2.28
2023-06-13T08:04:08.496Z,2.50
2023-06-13T08:06:35.845Z,2.50
2023-06-13T08:09:02.871Z,2.15
2023-06-13T08:11:29.878Z,2.30
2023-06-13T08:13:56.993Z,2.45
2023-06-13T08:16:24.131Z,2.30
2023-06-13T08:18:51.117Z,2.20
2023-06-13T08:21:18.072Z,2.33
2023-06-13T08:23:45.130Z,2.53
2023-06-13T08:26:12.996Z,2.00
2023-06-13T08:28:40.019Z,2.15
2023-06-13T08:31:26.344Z,2.63
2023-06-13T08:34:08.051Z,2.10
2023-06-13T08:36:37.524Z,2.22
2023-06-13T08:39:08.348Z,2.33
2023-06-13T08:41:38.672Z,2.42
2023-06-13T08:44:06.699Z,3.03
2023-06-13T08:46:35.304Z,2.45
2023-06-13T08:49:02.548Z,2.30
2023-06-13T08:51:33.214Z,2.50
2023-06-13T08:54:02.074Z,1.98
2023-06-13T08:56:34.632Z,2.83
2023-06-13T08:59:25.320Z,2.30
2023-06-13T09:01:54.646Z,2.00
2023-06-13T09:04:22.299Z,2.35
2023-06-13T09:06:49.867Z,2.58
2023-06-13T09:09:18.427Z,2.90
2023-06-13T09:11:49.199Z,2.20
2023-06-13T09:14:19.308Z,2.50
2023-06-13T09:16:46.988Z,2.70
2023-06-13T09:19:14.329Z,2.65
2023-06-13T09:21:42.078Z,2.72
2023-06-13T09:24:10.272Z,2.10
2023-06-13T09:26:55.810Z,2.25
2023-06-13T09:29:39.276Z,2.13
2023-06-13T09:32:11.411Z,2.40
2023-06-13T09:34:39.512Z,2.35
2023-06-13T09:37:09.083Z,2.33
2023-06-13T09:40:01.954Z,2.50
2023-06-13T09:42:35.324Z,2.38
2023-06-13T09:45:10.125Z,2.55
2023-06-13T09:47:37.563Z,2.38
2023-06-13T09:50:05.013Z,2.58
2023-06-13T09:52:32.135Z,2.40
2023-06-13T09:54:59.492Z,2.33
2023-06-13T09:57:41.785Z,2.53
2023-06-13T10:00:15.520Z,2.50
2023-06-13T10:02:44.686Z,2.60
2023-06-13T10:05:14.309Z,3.05
2023-06-13T10:07:41.685Z,2.70
2023-06-13T10:10:09.623Z,2.60
2023-06-13T10:12:41.354Z,2.58
2023-06-13T10:15:08.849Z,2.20
2023-06-13T10:17:43.507Z,2.65
2023-06-13T10:20:16.279Z,2.67
2023-06-13T10:22:43.789Z,2.58
2023-06-13T10:25:13.091Z,2.58
2023-06-13T10:27:47.372Z,2.40
2023-06-13T10:30:53.548Z,2.63
2023-06-13T10:33:45.581Z,2.78
2023-06-13T10:36:34.242Z,2.95
2023-06-13T10:39:16.218Z,3.00
2023-06-13T10:42:12.857Z,2.88
2023-06-13T10:44:51.869Z,2.42
2023-06-13T10:47:19.777Z,2.85
2023-06-13T10:49:50.255Z,2.63
2023-06-13T10:52:20.686Z,3.20
2023-06-13T10:54:57.121Z,2.60
2023-06-13T10:57:44.243Z,3.00
2023-06-13T11:00:23.888Z,2.80
2023-06-13T11:02:57.643Z,3.05
2023-06-13T11:05:37.358Z,2.80
2023-06-13T11:08:16.926Z,2.60
2023-06-13T11:10:46.180Z,2.83
2023-06-13T11:13:25.868Z,2.42
2023-06-13T11:15:57.939Z,2.90
2023-06-13T11:18:31.232Z,2.30
2023-06-13T11:21:00.307Z,2.60
2023-06-13T11:23:33.809Z,2.50
2023-06-13T11:26:04.998Z,2.65
2023-06-13T11:28:32.907Z,2.45
2023-06-13T11:31:05.470Z,2.45
2023-06-13T11:33:38.032Z,3.22
2023-06-13T11:36:06.094Z,2.38
2023-06-13T11:38:41.566Z,2.60
2023-06-13T11:41:08.914Z,2.88
2023-06-13T11:43:36.647Z,2.75
2023-06-13T11:46:06.056Z,2.50
2023-06-13T11:48:50.384Z,2.85
2023-06-13T11:51:19.767Z,2.80
2023-06-13T11:53:55.762Z,2.65
2023-06-13T11:56:25.298Z,2.60
2023-06-13T11:58:53.957Z,2.47
2023-06-13T12:01:26.137Z,2.55
2023-06-13T12:03:57.147Z,3.80
2023-06-13T12:06:26.180Z,2.90
2023-06-13T12:08:53.236Z,2.70
2023-06-13T12:11:26.214Z,2.90
2023-06-13T12:14:00.661Z,2.60
2023-06-13T12:16:33.871Z,2.58
2023-06-13T12:19:01.900Z,2.50
2023-06-13T12:21:40.036Z,2.50
2023-06-13T12:24:11.064Z,2.47
2023-06-13T12:26:42.635Z,2.50
2023-06-13T12:29:13.332Z,2.60
2023-06-13T12:31:44.868Z,2.60
2023-06-13T12:34:15.497Z,2.22
2023-06-13T12:36:45.562Z,2.58
2023-06-13T12:39:17.803Z,2.45
2023-06-13T12:41:49.330Z,2.53
2023-06-13T12:44:17.776Z,2.22
2023-06-13T12:46:46.452Z,2.63
2023-06-13T12:49:15.977Z,2.40
2023-06-13T12:51:45.164Z,2.88
2023-06-13T12:54:16.727Z,3.20
2023-06-13T12:56:59.065Z,2.45
2023-06-13T12:59:48.183Z,2.42
2023-06-13T13:02:17.949Z,2.60
2023-06-13T13:04:45.775Z,2.70
2023-06-13T13:07:16.865Z,2.70
2023-06-13T13:09:45.603Z,2.28
2023-06-13T13:12:15.055Z,2.30
2023-06-13T13:14:42.820Z,2.50
2023-06-13T13:17:09.817Z,2.47
2023-06-13T13:19:37.721Z,2.30
2023-06-13T13:22:05.248Z,2.45
2023-06-13T13:24:35.864Z,2.75
2023-06-13T13:27:04.041Z,2.55
2023-06-13T13:29:31.440Z,3.50
2023-06-13T13:31:58.452Z,2.50
2023-06-13T13:34:26.210Z,2.70
2023-06-13T13:36:55.135Z,2.65
2023-06-13T13:39:22.748Z,2.78
2023-06-13T13:41:50.011Z,2.85
2023-06-13T13:44:17.226Z,2.80
2023-06-13T13:46:44.299Z,2.70
2023-06-13T13:49:11.528Z,2.25
2023-06-13T13:51:39.938Z,2.80
2023-06-13T13:54:07.178Z,2.80
2023-06-13T13:56:34.503Z,2.60
2023-06-13T13:59:01.822Z,2.45
2023-06-13T14:01:29.187Z,3.00
2023-06-13T14:03:56.666Z,2.55
2023-06-13T14:06:23.838Z,2.80
2023-06-13T14:08:51.084Z,2.72
2023-06-13T14:11:18.830Z,2.70
2023-06-13T14:13:46.001Z,2.80
2023-06-13T14:16:13.153Z,2.75
2023-06-13T14:18:41.056Z,2.60
2023-06-13T14:21:08.136Z,2.65
2023-06-13T14:23:35.142Z,2.88
2023-06-13T14:26:02.528Z,2.90
2023-06-13T14:28:29.625Z,2.53
2023-06-13T14:30:57.335Z,3.05
2023-06-13T14:33:24.316Z,3.08
2023-06-13T14:35:51.612Z,2.95
2023-06-13T14:38:18.911Z,2.58
2023-06-13T14:40:46.115Z,2.80
2023-06-13T14:43:14.059Z,2.63
2023-06-13T14:45:41.364Z,2.80
2023-06-13T14:48:08.571Z,2.92
2023-06-13T14:50:35.965Z,2.45
2023-06-13T14:53:05.173Z,2.45
2023-06-13T14:55:33.070Z,3.03
2023-06-13T14:58:00.125Z,3.03
2023-06-13T15:00:28.254Z,2.78
2023-06-13T15:02:56.655Z,2.83
2023-06-13T15:05:23.900Z,2.83
2023-06-13T15:07:51.065Z,3.00
2023-06-13T15:10:18.460Z,3.03
2023-06-13T15:12:45.558Z,2.90
2023-06-13T15:15:12.894Z,3.25
2023-06-13T15:17:40.238Z,2.97
2023-06-13T15:20:08.044Z,3.08
2023-06-13T15:22:36.127Z,3.03
2023-06-13T15:25:03.571Z,3.08
2023-06-13T15:27:30.719Z,3.03
2023-06-13T15:29:58.180Z,2.88
2023-06-13T15:32:25.263Z,2.90
2023-06-13T15:34:52.457Z,3.50
2023-06-13T15:37:20.399Z,3.15
2023-06-13T15:39:47.615Z,2.78
2023-06-13T15:42:14.726Z,2.92
2023-06-13T15:44:43.071Z,3.00
2023-06-13T15:47:12.418Z,3.03
2023-06-13T15:49:39.501Z,2.75
2023-06-13T15:52:07.017Z,3.50
2023-06-13T15:54:34.091Z,2.95
2023-06-13T15:57:01.052Z,3.17
2023-06-13T15:59:28.228Z,3.08
2023-06-13T16:01:56.550Z,2.92
2023-06-13T16:04:25.691Z,3.35
2023-06-13T16:06:54.990Z,3.00
2023-06-13T16:09:23.632Z,2.95
2023-06-13T16:11:50.970Z,2.58
2023-06-13T16:14:18.742Z,2.60
2023-06-13T16:16:47.643Z,3.50
2023-06-13T16:19:15.815Z,3.80
2023-06-13T16:21:42.952Z,2.72
2023-06-13T16:24:11.261Z,3.33
2023-06-13T16:26:39.681Z,3.22
2023-06-13T16:29:06.836Z,2.90
2023-06-13T16:31:35.788Z,2.92
2023-06-13T16:34:04.515Z,2.60
2023-06-13T16:36:32.079Z,2.70
2023-06-13T16:38:59.127Z,2.67
2023-06-13T16:41:26.365Z,2.40
2023-06-13T16:43:53.949Z,2.90
2023-06-13T16:46:21.260Z,2.83
2023-06-13T16:48:48.537Z,2.85
2023-06-13T16:51:16.853Z,2.60
2023-06-13T16:53:44.986Z,2.70
2023-06-13T16:56:12.137Z,2.60
2023-06-13T16:58:39.731Z,2.28
2023-06-13T17:01:06.804Z,2.90
2023-06-13T17:03:34.784Z,2.58
2023-06-13T17:06:02.292Z,2.42
2023-06-13T17:08:29.528Z,2.45
2023-06-13T17:10:58.447Z,2.42
2023-06-13T17:13:25.865Z,2.50
2023-06-13T17:15:54.125Z,2.55
2023-06-13T17:18:21.486Z,2.50
2023-06-13T17:20:51.446Z,2.60
2023-06-13T17:23:18.535Z,2.30
2023-06-13T17:25:45.711Z,2.20
2023-06-13T17:28:13.151Z,2.38
2023-06-13T17:30:40.203Z,2.97
2023-06-13T17:33:08.018Z,2.50
2023-06-13T17:35:36.396Z,2.47
2023-06-13T17:38:04.469Z,2.72
2023-06-13T17:40:31.524Z,2.65
2023-06-13T17:42:58.553Z,2.30
2023-06-13T17:45:25.785Z,2.78
2023-06-13T17:47:53.095Z,2.58
2023-06-13T17:50:22.079Z,2.72
2023-06-13T17:52:49.124Z,2.50
2023-06-13T17:55:16.459Z,2.90
2023-06-13T17:57:43.881Z,2.63
2023-06-13T18:00:12.259Z,2.50
2023-06-13T18:02:40.845Z,2.22
2023-06-13T18:05:11.179Z,2.40
2023-06-13T18:07:38.244Z,2.30
2023-06-13T18:10:06.734Z,2.47
2023-06-13T18:12:34.093Z,2.58
2023-06-13T18:15:02.309Z,2.53
2023-06-13T18:17:29.574Z,2.40
2023-06-13T18:19:57.266Z,2.78
2023-06-13T18:22:24.305Z,2.30
2023-06-13T18:24:51.445Z,2.78
2023-06-13T18:27:18.958Z,2.60
2023-06-13T18:29:46.109Z,2.70
2023-06-13T18:32:13.464Z,2.72
2023-06-13T18:34:41.165Z,2.90
2023-06-13T18:37:08.297Z,2.80
2023-06-13T18:39:35.287Z,2.70
2023-06-13T18:42:02.340Z,2.72
2023-06-13T18:44:31.431Z,2.88
2023-06-13T18:46:58.713Z,2.78
2023-06-13T18:49:27.657Z,2.90
2023-06-13T18:51:56.841Z,2.60
2023-06-13T18:54:24.322Z,2.80
2023-06-13T18:56:51.544Z,2.83
2023-06-13T18:59:19.593Z,2.78
2023-06-13T19:01:49.824Z,2.53
2023-06-13T19:04:17.494Z,2.90
2023-06-13T19:06:44.690Z,2.83
2023-06-13T19:09:13.320Z,2.88
2023-06-13T19:11:40.444Z,2.95
2023-06-13T19:14:07.515Z,2.83
2023-06-13T19:16:35.733Z,2.60
2023-06-13T19:19:03.200Z,2.80
2023-06-13T19:21:30.691Z,3.30
2023-06-13T19:23:57.761Z,2.78
2023-06-13T19:26:26.581Z,2.80
2023-06-13T19:28:53.622Z,2.95
2023-06-13T19:31:22.506Z,2.95
2023-06-13T19:33:49.810Z,2.70
2023-06-13T19:36:18.723Z,2.47
2023-06-13T19:38:45.913Z,2.60
2023-06-13T19:41:13.025Z,3.22
2023-06-13T19:43:40.905Z,5.05
2023-06-13T19:46:07.999Z,7.30
2023-06-13T19:48:35.323Z,8.65
2023-06-13T19:51:17.538Z,5.43
2023-06-13T19:53:46.665Z,3.78
2023-06-13T19:56:14.005Z,3.40
2023-06-13T19:58:41.262Z,3.25
2023-06-13T20:01:08.711Z,3.30
2023-06-13T20:03:35.922Z,3.30
2023-06-13T20:06:06.027Z,2.95
2023-06-13T20:08:33.283Z,3.35
2023-06-13T20:11:05.946Z,3.10
2023-06-13T20:13:34.014Z,3.40
2023-06-13T20:16:01.796Z,3.05
2023-06-13T20:18:29.110Z,3.38
2023-06-13T20:20:56.108Z,3.03
2023-06-13T20:23:23.519Z,3.45
2023-06-13T20:25:50.611Z,3.10
2023-06-13T20:28:17.680Z,5.73
2023-06-13T20:30:44.819Z,4.47
2023-06-13T20:33:12.201Z,4.17
2023-06-13T20:35:39.482Z,3.40
2023-06-13T20:38:06.652Z,3.93
2023-06-13T20:40:33.667Z,3.77
2023-06-13T20:43:00.703Z,4.73
2023-06-13T20:45:30.000Z,4.30
2023-06-13T20:47:58.607Z,4.17
2023-06-13T20:50:32.169Z,3.80
2023-06-13T20:52:59.528Z,3.30
2023-06-13T20:55:29.770Z,2.77
2023-06-13T20:57:56.957Z,2.77
2023-06-13T21:00:27.164Z,2.70
2023-06-13T21:02:56.715Z,2.93
2023-06-13T21:05:25.109Z,3.10
2023-06-13T21:07:58.606Z,3.00
2023-06-13T21:10:26.704Z,2.83
2023-06-13T21:12:56.801Z,3.00
2023-06-13T21:15:27.079Z,2.70
2023-06-13T21:17:55.766Z,2.80
2023-06-13T21:20:27.315Z,3.13
2023-06-13T21:22:55.208Z,2.70
2023-06-13T21:25:23.211Z,2.90
2023-06-13T21:27:50.777Z,2.90
2023-06-13T21:30:20.120Z,3.53
2023-06-13T21:32:48.699Z,3.07
2023-06-13T21:35:16.122Z,2.80
2023-06-13T21:37:43.235Z,2.90
2023-06-13T21:40:10.756Z,3.03
2023-06-13T21:42:38.068Z,2.70
2023-06-13T21:45:06.211Z,2.90
2023-06-13T21:47:37.161Z,2.60
2023-06-13T21:50:09.169Z,2.80
2023-06-13T21:52:37.668Z,2.63
2023-06-13T21:55:12.424Z,2.63
2023-06-13T21:57:39.620Z,2.60
2023-06-13T22:00:15.976Z,2.83
2023-06-13T22:02:47.787Z,2.73
2023-06-13T22:05:15.725Z,2.80
2023-06-13T22:07:46.432Z,2.53
2023-06-13T22:10:15.742Z,2.67
2023-06-13T22:12:47.142Z,2.53
2023-06-13T22:15:15.356Z,2.83
2023-06-13T22:17:44.931Z,3.00
2023-06-13T22:20:22.241Z,2.70
2023-06-13T22:22:51.239Z,2.70
2023-06-13T22:25:18.419Z,2.83
2023-06-13T22:27:46.522Z,2.73
2023-06-13T22:30:15.866Z,2.60
2023-06-13T22:32:43.103Z,2.47
2023-06-13T22:35:11.297Z,3.00
2023-06-13T22:37:41.831Z,2.53
2023-06-13T22:40:10.684Z,3.10
2023-06-13T22:42:38.231Z,2.87
2023-06-13T22:45:06.790Z,2.90
2023-06-13T22:47:33.931Z,2.67
2023-06-13T22:50:01.260Z,2.60
2023-06-13T22:52:29.008Z,3.00
2023-06-13T22:54:56.248Z,3.00
2023-06-13T22:57:23.260Z,2.70
2023-06-13T22:59:50.432Z,2.80
2023-06-13T23:02:17.448Z,2.93
2023-06-13T23:04:44.951Z,3.90
2023-06-13T23:07:11.933Z,2.77
2023-06-13T23:09:38.872Z,2.87
2023-06-13T23:12:06.423Z,2.70
2023-06-13T23:14:33.614Z,2.83
2023-06-13T23:17:00.599Z,3.10
2023-06-13T23:19:27.652Z,2.97
2023-06-13T23:21:54.571Z,2.93
2023-06-13T23:24:22.489Z,2.70
2023-06-13T23:26:49.654Z,2.77
2023-06-13T23:29:16.885Z,2.50
2023-06-13T23:31:44.395Z,2.90
2023-06-13T23:34:11.502Z,2.77
2023-06-13T23:36:43.353Z,2.83
2023-06-13T23:39:31.508Z,2.50
2023-06-13T23:41:57.948Z,2.90
2023-06-13T23:44:25.300Z,2.80
2023-06-13T23:46:52.378Z,3.07
2023-06-13T23:49:19.418Z,3.10
2023-06-13T23:51:46.430Z,2.87
2023-06-13T23:54:15.819Z,2.60
2023-06-13T23:56:42.860Z,3.20
2023-06-13T23:59:10.005Z,3.00
